Regional Weather

 

KMKL - Jackson, TN, USA
Distance from station: WNW 50mi, 81km
Updated: Mon, Jul-26-2021 11:53pm CDT
Mist, Clear
Mist, Clear
 Wind from calm
Wind: Calm
Temperature: 75°F , 24°C
Dew Point: 73°F , 23°C
Humidity: 94%
Barometer: 30.00 inHg , 1015.9 hPa
Summary: Mist
Clouds: Clear
Visibility: 6 miles , 10 km
2021/07/27 04:53 KMKL 270453Z AUTO 00000KT 6SM BR CLR 24/23 A3000 RMK AO2 SLP153 T02440228
KMEM - Memphis, TN, USA
Distance from station: W 108mi, 173km
Updated: Mon, Jul-26-2021 11:54pm CDT
Partly cloudy
Partly cloudy
 Wind from ENE
Wind: ENE 7 mph , 11 km/h
Temperature: 81°F , 27°C
Heat Index: 85°F , 29°C
Dew Point: 72°F , 22°C
Humidity: 74%
Barometer: 29.99 inHg , 1015.6 hPa
Clouds: Partly cloudy
Visibility: 10 miles , 16 km
Cloud details: Few Clouds 15000 ft
Partly cloudy 25000 ft
2021/07/27 04:54 KMEM 270454Z 07006KT 10SM FEW150 SCT250 27/22 A2999 RMK AO2 SLP150 T02720217
 
KBNA - Nashville, TN, USA
Distance from station: NE 97mi, 157km
Updated: Mon, Jul-26-2021 11:53pm CDT
Partly cloudy
Partly cloudy
 Wind from calm
Wind: Calm
Temperature: 79°F , 26°C
Dew Point: 73°F , 23°C
Humidity: 84%
Barometer: 30.02 inHg , 1016.6 hPa
Clouds: Partly cloudy
Visibility: 9 miles , 14 km
Cloud details: Partly cloudy 10000 ft
2021/07/27 04:53 KBNA 270453Z 00000KT 9SM SCT100 26/23 A3002 RMK AO2 SLP159 T02560233
KCKV - Clarksville, TN, USA
Distance from station: NNE 99mi, 159km
Updated: Mon, Jul-26-2021 11:52pm CDT
Few Clouds
Few Clouds
 Wind from calm
Wind: Calm
Temperature: 79°F , 26°C
Dew Point: 73°F , 23°C
Humidity: 84%
Barometer: 30.01 inHg , 1016.3 hPa
Clouds: Few Clouds
Visibility: 10 miles , 16 km
Cloud details: Few Clouds 4500 ft
2021/07/27 04:52 KCKV 270452Z AUTO 00000KT 10SM FEW045 26/23 A3001 RMK AO2 SLP155 T02560233
 
KPAH - Paducah, KY, USA
Distance from station: NNW 128mi, 205km
Updated: Mon, Jul-26-2021 11:53pm CDT
Clear
Clear
 Wind from calm
Wind: Calm
Temperature: 73°F , 23°C
Dew Point: 72°F , 22°C
Humidity: 94%
Barometer: 30.01 inHg , 1016.3 hPa
Clouds: Clear
Visibility: 7 miles , 11 km
2021/07/27 04:53 KPAH 270453Z AUTO 00000KT 7SM CLR 23/22 A3001 RMK AO2 SLP158 T02330217
KCHA - Chattanooga, TN, USA
Distance from station: E 165mi, 265km
Updated: Mon, Jul-26-2021 11:53pm CDT
Clear
Clear
 Wind from SSE
Wind: SSE 6 mph , 9 km/h
Temperature: 75°F , 24°C
Dew Point: 73°F , 23°C
Humidity: 94%
Barometer: 30.03 inHg , 1016.9 hPa
Clouds: Clear
Visibility: 10 miles , 16 km
2021/07/27 04:53 KCHA 270453Z 15005KT 10SM CLR 24/23 A3003 RMK AO2 SLP160 T02440228 403330233 $
 
KTYS - Knoxville, TN, USA
Distance from station: E 234mi, 377km
Updated: Mon, Jul-26-2021 11:53pm CDT
Mostly cloudy
Mostly cloudy
 Wind from NNE
Wind: NNE 3 mph , 6 km/h
Temperature: 73°F , 23°C
Dew Point: 72°F , 22°C
Humidity: 94%
Barometer: 30.03 inHg , 1016.9 hPa
Clouds: Mostly cloudy
Visibility: 10 miles , 16 km
Cloud details: Few Clouds 1000 ft
Partly cloudy 13000 ft
Mostly cloudy 25000 ft
2021/07/27 04:53 KTYS 270453Z 02003KT 10SM FEW010 SCT130 BKN250 23/22 A3003 RMK AO2 SLP155 T02330222 403220228 $
KLIT - Little Rock, AR, USA
Distance from station: W 240mi, 386km
Updated: Mon, Jul-26-2021 11:53pm CDT
Few Clouds
Few Clouds
 Wind from calm
Wind: Calm
Temperature: 81°F , 27°C
Heat Index: 88°F , 31°C
Dew Point: 77°F , 25°C
Humidity: 89%
Barometer: 29.96 inHg , 1014.6 hPa
Clouds: Few Clouds
Visibility: 10 miles , 16 km
Cloud details: Few Clouds 25000 ft
2021/07/27 04:53 KLIT 270453Z 00000KT 10SM FEW250 27/25 A2996 RMK AO2 SLP146 T02670250

Refresh Page for latest data.